createdAt,value
2019-03-19T00:00:38.206Z,90.00
2019-03-19T00:01:38.228Z,135.00
2019-03-19T00:02:38.292Z,112.50
2019-03-19T00:03:38.218Z,90.00
2019-03-19T00:04:38.287Z,90.00
2019-03-19T00:05:38.289Z,67.50
2019-03-19T00:06:38.286Z,90.00
2019-03-19T00:07:38.224Z,67.50
2019-03-19T00:08:38.288Z,45.00
2019-03-19T00:09:38.291Z,180.00
2019-03-19T00:10:38.292Z,67.50
2019-03-19T00:11:38.324Z,112.50
2019-03-19T00:12:38.238Z,90.00
2019-03-19T00:13:38.311Z,67.50
2019-03-19T00:14:38.260Z,67.50
2019-03-19T00:15:38.144Z,45.00
2019-03-19T00:16:38.265Z,157.50
2019-03-19T00:17:38.206Z,337.50
2019-03-19T00:18:38.176Z,90.00
2019-03-19T00:19:38.214Z,112.50
2019-03-19T00:20:38.150Z,315.00
2019-03-19T00:21:38.180Z,90.00
2019-03-19T00:22:38.317Z,225.00
2019-03-19T00:23:38.299Z,135.00
2019-03-19T00:24:38.250Z,225.00
2019-03-19T00:25:38.310Z,157.50
2019-03-19T00:26:38.259Z,45.00
2019-03-19T00:27:38.310Z,225.00
2019-03-19T00:28:39.137Z,135.00
2019-03-19T00:29:38.245Z,22.50
2019-03-19T00:30:38.313Z,22.50
2019-03-19T00:31:38.257Z,67.50
2019-03-19T00:32:38.251Z,90.00
2019-03-19T00:33:38.237Z,67.50
2019-03-19T00:34:38.231Z,45.00
2019-03-19T00:35:38.309Z,157.50
2019-03-19T00:36:38.254Z,202.50
2019-03-19T00:37:38.254Z,135.00
2019-03-19T00:38:38.313Z,67.50
2019-03-19T00:40:38.308Z,135.00
2019-03-19T00:41:38.310Z,135.00
2019-03-19T00:42:38.261Z,292.50
2019-03-19T00:43:38.257Z,202.50
2019-03-19T00:44:38.312Z,225.00
2019-03-19T00:45:38.242Z,202.50
2019-03-19T00:46:38.320Z,202.50
2019-03-19T00:47:38.387Z,270.00
2019-03-19T00:48:38.259Z,315.00
2019-03-19T00:49:38.269Z,337.50
2019-03-19T00:50:38.254Z,90.00
2019-03-19T00:51:38.331Z,90.00
2019-03-19T00:52:38.322Z,67.50
2019-03-19T00:53:38.326Z,67.50
2019-03-19T00:54:38.273Z,67.50
2019-03-19T00:55:40.870Z,22.50
2019-03-19T00:56:38.323Z,45.00
2019-03-19T00:57:38.336Z,45.00
2019-03-19T00:58:38.269Z,45.00
2019-03-19T00:59:38.311Z,45.00
2019-03-19T01:00:38.334Z,67.50
2019-03-19T01:01:38.934Z,67.50
2019-03-19T01:02:38.245Z,157.50
2019-03-19T01:03:38.314Z,202.50
2019-03-19T01:04:38.342Z,225.00
2019-03-19T01:05:38.320Z,202.50
2019-03-19T01:06:38.315Z,135.00
2019-03-19T01:07:38.250Z,67.50
2019-03-19T01:08:38.342Z,90.00
2019-03-19T01:09:38.266Z,180.00
2019-03-19T01:10:38.250Z,315.00
2019-03-19T01:11:38.323Z,112.50
2019-03-19T01:12:38.227Z,90.00
2019-03-19T01:13:38.315Z,135.00
2019-03-19T01:14:38.278Z,90.00
2019-03-19T01:15:38.318Z,45.00
2019-03-19T01:16:38.322Z,45.00
2019-03-19T01:17:38.274Z,67.50
2019-03-19T01:18:38.311Z,67.50
2019-03-19T01:19:38.326Z,45.00
2019-03-19T01:20:38.293Z,67.50
2019-03-19T01:21:38.335Z,180.00
2019-03-19T01:22:38.330Z,67.50
2019-03-19T01:23:38.331Z,90.00
2019-03-19T01:24:38.328Z,67.50
2019-03-19T01:25:39.626Z,45.00
2019-03-19T01:26:38.221Z,180.00
2019-03-19T01:27:38.339Z,157.50
2019-03-19T01:28:38.335Z,202.50
2019-03-19T01:29:38.267Z,225.00
2019-03-19T01:30:38.337Z,225.00
2019-03-19T01:31:38.274Z,180.00
2019-03-19T01:32:38.356Z,45.00
2019-03-19T01:33:38.351Z,22.50
2019-03-19T01:34:38.297Z,202.50
2019-03-19T01:35:38.313Z,67.50
2019-03-19T01:36:38.292Z,45.00
2019-03-19T01:37:38.361Z,22.50
2019-03-19T01:38:38.297Z,67.50
2019-03-19T01:39:38.354Z,45.00
2019-03-19T01:40:38.299Z,67.50
2019-03-19T01:41:38.296Z,67.50
2019-03-19T01:42:38.418Z,67.50
2019-03-19T01:43:38.379Z,67.50
2019-03-19T01:44:38.318Z,22.50
2019-03-19T01:45:38.307Z,22.50
2019-03-19T01:46:38.312Z,45.00
2019-03-19T01:47:38.375Z,22.50
2019-03-19T01:48:38.306Z,22.50
2019-03-19T01:49:38.315Z,45.00
2019-03-19T01:50:38.385Z,45.00
2019-03-19T01:51:38.374Z,67.50
2019-03-19T01:52:38.326Z,45.00
2019-03-19T01:53:38.250Z,90.00
2019-03-19T01:54:38.238Z,45.00
2019-03-19T01:55:38.252Z,45.00
2019-03-19T01:56:38.256Z,67.50
2019-03-19T01:57:38.276Z,45.00
2019-03-19T01:58:38.234Z,67.50
2019-03-19T01:59:38.262Z,45.00
2019-03-19T02:00:38.350Z,67.50
2019-03-19T02:01:38.234Z,67.50
2019-03-19T02:02:38.342Z,67.50
2019-03-19T02:03:38.357Z,67.50
2019-03-19T02:04:38.268Z,67.50
2019-03-19T02:05:38.372Z,45.00
2019-03-19T02:06:38.334Z,45.00
2019-03-19T02:07:38.358Z,67.50
2019-03-19T02:08:38.265Z,67.50
2019-03-19T02:09:38.352Z,45.00
2019-03-19T02:10:38.321Z,22.50
2019-03-19T02:11:38.582Z,45.00
2019-03-19T02:12:38.268Z,45.00
2019-03-19T02:13:38.303Z,67.50
2019-03-19T02:14:38.363Z,67.50
2019-03-19T02:15:38.325Z,67.50
2019-03-19T02:16:38.309Z,67.50
2019-03-19T02:17:38.371Z,45.00
2019-03-19T02:18:38.298Z,67.50
2019-03-19T02:19:38.374Z,67.50
2019-03-19T02:20:38.367Z,67.50
2019-03-19T02:21:38.376Z,45.00
2019-03-19T02:22:38.377Z,67.50
2019-03-19T02:23:38.433Z,45.00
2019-03-19T02:24:38.408Z,22.50
2019-03-19T02:25:38.335Z,22.50
2019-03-19T02:26:38.401Z,247.50
2019-03-19T02:28:38.327Z,67.50
2019-03-19T02:29:38.345Z,67.50
2019-03-19T02:30:38.355Z,67.50
2019-03-19T02:31:38.408Z,90.00
2019-03-19T02:32:38.419Z,45.00
2019-03-19T02:33:38.473Z,45.00
2019-03-19T02:34:38.443Z,45.00
2019-03-19T02:35:38.390Z,45.00
2019-03-19T02:36:38.378Z,67.50
2019-03-19T02:37:38.407Z,90.00
2019-03-19T02:38:38.395Z,90.00
2019-03-19T02:39:38.324Z,45.00
2019-03-19T02:40:38.392Z,45.00
2019-03-19T02:41:38.403Z,45.00
2019-03-19T02:42:38.402Z,292.50
2019-03-19T02:43:38.342Z,112.50
2019-03-19T02:44:38.338Z,22.50
2019-03-19T02:45:38.398Z,22.50
2019-03-19T02:46:38.348Z,90.00
2019-03-19T02:47:38.342Z,90.00
2019-03-19T02:48:38.421Z,67.50
2019-03-19T02:49:38.337Z,45.00
2019-03-19T02:50:38.349Z,67.50
2019-03-19T02:51:38.423Z,135.00
2019-03-19T02:52:38.356Z,90.00
2019-03-19T02:53:38.416Z,67.50
2019-03-19T02:54:38.356Z,67.50
2019-03-19T02:55:38.443Z,45.00
2019-03-19T02:56:38.333Z,45.00
2019-03-19T02:57:38.415Z,45.00
2019-03-19T02:58:38.299Z,22.50
2019-03-19T02:59:38.402Z,22.50
2019-03-19T03:00:38.440Z,45.00
2019-03-19T03:01:38.336Z,270.00
2019-03-19T03:02:38.429Z,135.00
2019-03-19T03:03:38.293Z,22.50
2019-03-19T03:04:38.359Z,135.00
2019-03-19T03:05:38.285Z,247.50
2019-03-19T03:06:38.347Z,180.00
2019-03-19T03:07:38.290Z,112.50
2019-03-19T03:08:38.403Z,90.00
2019-03-19T03:09:38.312Z,67.50
2019-03-19T03:10:38.354Z,45.00
2019-03-19T03:11:38.354Z,67.50
2019-03-19T03:12:38.395Z,90.00
2019-03-19T03:13:38.407Z,135.00
2019-03-19T03:14:38.349Z,67.50
2019-03-19T03:15:38.353Z,112.50
2019-03-19T03:16:38.416Z,247.50
2019-03-19T03:17:38.343Z,180.00
2019-03-19T03:18:38.412Z,180.00
2019-03-19T03:19:38.411Z,157.50
2019-03-19T03:20:38.474Z,180.00
2019-03-19T03:21:38.433Z,157.50
2019-03-19T03:22:38.480Z,45.00
2019-03-19T03:23:38.414Z,45.00
2019-03-19T03:24:38.413Z,90.00
2019-03-19T03:25:38.356Z,45.00
2019-03-19T03:26:47.784Z,67.50
2019-03-19T03:27:38.364Z,315.00
2019-03-19T03:28:38.435Z,337.50
2019-03-19T03:29:38.346Z,270.00
2019-03-19T03:30:38.440Z,337.50
2019-03-19T03:31:38.445Z,337.50
2019-03-19T03:32:38.367Z,270.00
2019-03-19T03:33:38.340Z,270.00
2019-03-19T03:34:38.417Z,270.00
2019-03-19T03:35:38.304Z,337.50
2019-03-19T03:36:38.366Z,270.00
2019-03-19T03:37:38.349Z,270.00
2019-03-19T03:38:38.445Z,157.50
2019-03-19T03:39:38.413Z,180.00
2019-03-19T03:40:38.427Z,112.50
2019-03-19T03:41:38.345Z,90.00
2019-03-19T03:42:38.436Z,90.00
2019-03-19T03:43:38.431Z,67.50
2019-03-19T03:44:38.373Z,67.50
2019-03-19T03:45:38.436Z,67.50
2019-03-19T03:46:38.443Z,67.50
2019-03-19T03:47:38.364Z,67.50
2019-03-19T03:48:38.371Z,67.50
2019-03-19T03:49:38.441Z,135.00
2019-03-19T03:50:38.436Z,67.50
2019-03-19T03:51:38.369Z,112.50
2019-03-19T03:52:38.435Z,67.50
2019-03-19T03:53:38.370Z,67.50
2019-03-19T03:54:38.438Z,45.00
2019-03-19T03:55:38.436Z,67.50
2019-03-19T03:56:38.441Z,45.00
2019-03-19T03:57:38.393Z,315.00
2019-03-19T03:58:38.448Z,45.00
2019-03-19T03:59:38.447Z,67.50
2019-03-19T04:00:38.379Z,45.00
2019-03-19T04:01:38.463Z,202.50
2019-03-19T04:02:38.441Z,202.50
2019-03-19T04:03:38.458Z,292.50
2019-03-19T04:04:38.400Z,225.00
2019-03-19T04:05:38.400Z,247.50
2019-03-19T04:06:38.479Z,112.50
2019-03-19T04:07:38.390Z,157.50
2019-03-19T04:08:38.438Z,270.00
2019-03-19T04:09:38.486Z,22.50
2019-03-19T04:10:38.471Z,67.50
2019-03-19T04:11:38.387Z,135.00
2019-03-19T04:12:38.465Z,180.00
2019-03-19T04:13:38.468Z,225.00
2019-03-19T04:14:38.469Z,180.00
2019-03-19T04:15:38.391Z,315.00
2019-03-19T04:16:38.466Z,270.00
2019-03-19T04:17:38.408Z,225.00
2019-03-19T04:18:38.401Z,247.50
2019-03-19T04:19:38.463Z,270.00
2019-03-19T04:20:38.480Z,247.50
2019-03-19T04:21:38.453Z,270.00
2019-03-19T04:22:38.473Z,225.00
2019-03-19T04:23:38.413Z,247.50
2019-03-19T04:24:38.345Z,292.50
2019-03-19T04:25:38.417Z,292.50
2019-03-19T04:26:38.333Z,292.50
2019-03-19T04:27:40.281Z,292.50
2019-03-19T04:28:38.388Z,337.50
2019-03-19T04:29:38.445Z,315.00
2019-03-19T04:30:38.321Z,225.00
2019-03-19T04:31:38.442Z,292.50
2019-03-19T04:32:38.414Z,270.00
2019-03-19T04:33:38.400Z,315.00
2019-03-19T04:34:38.453Z,270.00
2019-03-19T04:35:38.396Z,270.00
2019-03-19T04:36:38.421Z,270.00
2019-03-19T04:37:38.462Z,247.50
2019-03-19T04:38:38.344Z,270.00
2019-03-19T04:39:38.380Z,225.00
2019-03-19T04:40:38.465Z,270.00
2019-03-19T04:41:38.473Z,225.00
2019-03-19T04:42:38.489Z,315.00
2019-03-19T04:43:38.333Z,225.00
2019-03-19T04:44:38.450Z,157.50
2019-03-19T04:45:38.445Z,202.50
2019-03-19T04:46:38.396Z,135.00
2019-03-19T04:47:38.460Z,225.00
2019-03-19T04:48:38.453Z,180.00
2019-03-19T04:49:38.363Z,270.00
2019-03-19T04:50:38.344Z,225.00
2019-03-19T04:51:38.344Z,225.00
2019-03-19T04:52:38.430Z,202.50
2019-03-19T04:53:38.490Z,180.00
2019-03-19T04:54:38.417Z,67.50
2019-03-19T04:55:38.419Z,67.50
2019-03-19T04:56:38.483Z,292.50
2019-03-19T04:57:38.415Z,67.50
2019-03-19T04:58:38.484Z,67.50
2019-03-19T04:59:38.416Z,157.50
2019-03-19T05:00:38.482Z,337.50
2019-03-19T05:01:38.416Z,45.00
2019-03-19T05:02:38.484Z,45.00
2019-03-19T05:03:38.507Z,67.50
2019-03-19T05:04:38.503Z,67.50
2019-03-19T05:05:38.436Z,202.50
2019-03-19T05:06:38.500Z,292.50
2019-03-19T05:07:38.498Z,225.00
2019-03-19T05:08:38.446Z,225.00
2019-03-19T05:09:38.564Z,67.50
2019-03-19T05:10:38.447Z,45.00
2019-03-19T05:11:38.503Z,90.00
2019-03-19T05:12:38.503Z,270.00
2019-03-19T05:13:38.447Z,292.50
2019-03-19T05:14:38.513Z,247.50
2019-03-19T05:15:38.492Z,247.50
2019-03-19T05:16:38.444Z,270.00
2019-03-19T05:17:38.451Z,292.50
2019-03-19T05:18:38.452Z,337.50
2019-03-19T05:19:38.452Z,157.50
2019-03-19T05:20:38.454Z,270.00
2019-03-19T05:21:38.450Z,157.50
2019-03-19T05:22:38.511Z,22.50
2019-03-19T05:23:38.508Z,180.00
2019-03-19T05:24:38.522Z,225.00
2019-03-19T05:25:38.458Z,247.50
2019-03-19T05:26:38.512Z,157.50
2019-03-19T05:27:38.462Z,135.00
2019-03-19T05:28:38.501Z,225.00
2019-03-19T05:29:38.518Z,135.00
2019-03-19T05:30:38.520Z,180.00
2019-03-19T05:31:38.455Z,22.50
2019-03-19T05:32:38.517Z,225.00
2019-03-19T05:33:38.524Z,67.50
2019-03-19T05:34:38.530Z,90.00
2019-03-19T05:35:38.514Z,135.00
2019-03-19T05:36:38.537Z,22.50
2019-03-19T05:37:38.462Z,45.00
2019-03-19T05:38:38.513Z,45.00
2019-03-19T05:39:38.450Z,67.50
2019-03-19T05:40:38.558Z,45.00
2019-03-19T05:41:38.540Z,90.00
2019-03-19T05:42:38.485Z,67.50
2019-03-19T05:43:38.523Z,22.50
2019-03-19T05:44:38.455Z,67.50
2019-03-19T05:45:38.489Z,67.50
2019-03-19T05:46:38.570Z,67.50
2019-03-19T05:47:40.482Z,67.50
2019-03-19T05:48:38.455Z,67.50
2019-03-19T05:49:38.456Z,67.50
2019-03-19T05:50:38.517Z,45.00
2019-03-19T05:51:38.552Z,315.00
2019-03-19T05:52:38.538Z,90.00
2019-03-19T05:53:38.538Z,112.50
2019-03-19T05:54:38.459Z,45.00
2019-03-19T05:55:38.552Z,45.00
2019-03-19T05:56:38.461Z,67.50
2019-03-19T05:57:48.889Z,67.50
2019-03-19T05:58:38.542Z,67.50
2019-03-19T05:59:40.026Z,90.00
2019-03-19T06:00:38.464Z,135.00
2019-03-19T06:01:38.529Z,180.00
2019-03-19T06:02:38.472Z,247.50
2019-03-19T06:03:38.461Z,225.00
2019-03-19T06:04:38.528Z,270.00
2019-03-19T06:05:38.529Z,247.50
2019-03-19T06:06:38.451Z,292.50
2019-03-19T06:07:38.464Z,292.50
2019-03-19T06:08:38.457Z,202.50
2019-03-19T06:09:38.596Z,292.50
2019-03-19T06:10:38.533Z,292.50
2019-03-19T06:11:38.458Z,270.00
2019-03-19T06:12:38.458Z,225.00
2019-03-19T06:13:38.548Z,135.00
2019-03-19T06:14:38.490Z,112.50
2019-03-19T06:15:38.471Z,90.00
2019-03-19T06:16:38.473Z,90.00
2019-03-19T06:17:38.472Z,90.00
2019-03-19T06:18:38.543Z,90.00
2019-03-19T06:19:38.492Z,67.50
2019-03-19T06:20:38.480Z,45.00
2019-03-19T06:21:38.546Z,90.00
2019-03-19T06:22:38.481Z,90.00
2019-03-19T06:23:38.482Z,112.50
2019-03-19T06:24:38.546Z,112.50
2019-03-19T06:25:38.503Z,112.50
2019-03-19T06:26:38.477Z,135.00
2019-03-19T06:27:38.555Z,180.00
2019-03-19T06:28:38.553Z,157.50
2019-03-19T06:29:38.554Z,315.00
2019-03-19T06:30:38.497Z,315.00
2019-03-19T06:31:38.485Z,45.00
2019-03-19T06:32:38.557Z,112.50
2019-03-19T06:33:38.558Z,135.00
2019-03-19T06:34:38.498Z,157.50
2019-03-19T06:35:38.508Z,157.50
2019-03-19T06:36:38.580Z,90.00
2019-03-19T06:37:38.488Z,22.50
2019-03-19T06:38:38.492Z,67.50
2019-03-19T06:39:38.566Z,90.00
2019-03-19T06:40:38.563Z,90.00
2019-03-19T06:41:38.574Z,90.00
2019-03-19T06:42:38.504Z,67.50
2019-03-19T06:43:38.561Z,67.50
2019-03-19T06:44:38.583Z,45.00
2019-03-19T06:45:38.494Z,67.50
2019-03-19T06:46:38.506Z,22.50
2019-03-19T06:47:38.580Z,270.00
2019-03-19T06:48:38.494Z,112.50
2019-03-19T06:49:38.568Z,247.50
2019-03-19T06:50:45.109Z,157.50
2019-03-19T06:51:38.498Z,112.50
2019-03-19T06:52:38.559Z,45.00
2019-03-19T06:53:38.520Z,45.00
2019-03-19T06:54:38.568Z,22.50
2019-03-19T06:55:38.533Z,90.00
2019-03-19T06:56:38.575Z,225.00
2019-03-19T06:57:39.505Z,247.50
2019-03-19T06:58:38.505Z,292.50
2019-03-19T06:59:38.515Z,292.50
2019-03-19T07:00:38.514Z,292.50
2019-03-19T07:01:38.582Z,270.00
2019-03-19T07:02:38.503Z,157.50
2019-03-19T07:03:38.510Z,112.50
2019-03-19T07:04:38.573Z,270.00
2019-03-19T07:05:38.510Z,247.50
2019-03-19T07:06:38.507Z,157.50
2019-03-19T07:07:38.514Z,157.50
2019-03-19T07:08:38.522Z,157.50
2019-03-19T07:09:38.509Z,315.00
2019-03-19T07:10:38.579Z,202.50
2019-03-19T07:11:38.510Z,315.00
2019-03-19T07:12:38.583Z,90.00
2019-03-19T07:13:38.528Z,135.00
2019-03-19T07:14:38.526Z,225.00
2019-03-19T07:15:38.559Z,270.00
2019-03-19T07:16:38.585Z,292.50
2019-03-19T07:17:38.518Z,247.50
2019-03-19T07:18:38.591Z,180.00
2019-03-19T07:19:38.517Z,225.00
2019-03-19T07:20:38.586Z,270.00
2019-03-19T07:21:38.521Z,270.00
2019-03-19T07:22:38.602Z,270.00
2019-03-19T07:23:38.523Z,270.00
2019-03-19T07:24:38.595Z,247.50
2019-03-19T07:25:38.602Z,247.50
2019-03-19T07:26:38.527Z,270.00
2019-03-19T07:27:38.526Z,292.50
2019-03-19T07:28:38.591Z,270.00
2019-03-19T07:29:38.545Z,270.00
2019-03-19T07:30:40.764Z,270.00
2019-03-19T07:31:38.524Z,270.00
2019-03-19T07:32:38.526Z,247.50
2019-03-19T07:33:38.597Z,270.00
2019-03-19T07:34:38.692Z,247.50
2019-03-19T07:35:38.546Z,270.00
2019-03-19T07:36:38.530Z,270.00
2019-03-19T07:37:38.604Z,292.50
2019-03-19T07:38:38.599Z,270.00
2019-03-19T07:39:38.605Z,270.00
2019-03-19T07:40:38.496Z,270.00
2019-03-19T07:41:38.615Z,292.50
2019-03-19T07:42:38.619Z,270.00
2019-03-19T07:43:38.604Z,292.50
2019-03-19T07:44:38.565Z,270.00
2019-03-19T07:45:38.610Z,247.50
2019-03-19T07:46:38.557Z,270.00
2019-03-19T07:47:38.612Z,225.00
2019-03-19T07:48:38.609Z,247.50
2019-03-19T07:49:38.616Z,202.50
2019-03-19T07:50:38.618Z,202.50
2019-03-19T07:51:38.616Z,135.00
2019-03-19T07:52:38.622Z,270.00
2019-03-19T07:53:38.538Z,247.50
2019-03-19T07:54:38.617Z,247.50
2019-03-19T07:55:38.622Z,247.50
2019-03-19T07:56:38.542Z,247.50
2019-03-19T07:57:38.620Z,247.50
2019-03-19T07:58:45.258Z,270.00
2019-03-19T07:59:38.617Z,270.00
2019-03-19T08:00:38.548Z,270.00
2019-03-19T08:01:38.623Z,270.00
2019-03-19T08:02:38.563Z,292.50
2019-03-19T08:03:38.626Z,225.00
2019-03-19T08:04:38.552Z,270.00
2019-03-19T08:05:38.618Z,292.50
2019-03-19T08:06:38.624Z,270.00
2019-03-19T08:07:38.601Z,247.50
2019-03-19T08:08:38.591Z,270.00
2019-03-19T08:09:38.711Z,270.00
2019-03-19T08:10:38.557Z,247.50
2019-03-19T08:11:38.556Z,270.00
2019-03-19T08:12:38.556Z,270.00
2019-03-19T08:13:38.635Z,202.50
2019-03-19T08:14:38.555Z,270.00
2019-03-19T08:15:38.529Z,270.00
2019-03-19T08:16:38.567Z,270.00
2019-03-19T08:17:38.520Z,292.50
2019-03-19T08:18:38.603Z,270.00
2019-03-19T08:19:38.611Z,270.00
2019-03-19T08:20:38.621Z,292.50
2019-03-19T08:21:38.607Z,270.00
2019-03-19T08:22:38.616Z,247.50
2019-03-19T08:23:38.616Z,270.00
2019-03-19T08:24:38.570Z,270.00
2019-03-19T08:25:38.566Z,270.00
2019-03-19T08:26:38.567Z,247.50
2019-03-19T08:27:38.685Z,270.00
2019-03-19T08:28:38.569Z,292.50
2019-03-19T08:29:38.647Z,292.50
2019-03-19T08:30:38.572Z,270.00
2019-03-19T08:31:38.644Z,270.00
2019-03-19T08:32:38.570Z,270.00
2019-03-19T08:33:38.638Z,270.00
2019-03-19T08:34:38.618Z,247.50
2019-03-19T08:35:38.588Z,292.50
2019-03-19T08:36:38.546Z,270.00
2019-03-19T08:37:38.571Z,270.00
2019-03-19T08:38:38.619Z,270.00
2019-03-19T08:39:38.634Z,247.50
2019-03-19T08:40:38.639Z,292.50
2019-03-19T08:41:38.534Z,247.50
2019-03-19T08:42:38.556Z,292.50
2019-03-19T08:43:38.548Z,292.50
2019-03-19T08:44:38.550Z,247.50
2019-03-19T08:45:38.565Z,270.00
2019-03-19T08:46:38.577Z,292.50
2019-03-19T08:47:38.648Z,225.00
2019-03-19T08:48:38.638Z,225.00
2019-03-19T08:49:38.643Z,225.00
2019-03-19T08:50:38.573Z,247.50
2019-03-19T08:51:38.637Z,292.50
2019-03-19T08:52:38.558Z,292.50
2019-03-19T08:53:38.570Z,270.00
2019-03-19T08:54:38.594Z,270.00
2019-03-19T08:55:38.562Z,270.00
2019-03-19T08:56:38.519Z,292.50
2019-03-19T08:57:38.649Z,270.00
2019-03-19T08:58:38.635Z,270.00
2019-03-19T08:59:38.596Z,270.00
2019-03-19T09:00:38.528Z,247.50
2019-03-19T09:01:38.581Z,270.00
2019-03-19T09:02:38.584Z,270.00
2019-03-19T09:03:38.643Z,270.00
2019-03-19T09:04:38.597Z,247.50
2019-03-19T09:05:38.590Z,225.00
2019-03-19T09:06:38.661Z,225.00
2019-03-19T09:07:38.610Z,247.50
2019-03-19T09:08:38.678Z,270.00
2019-03-19T09:09:38.564Z,270.00
2019-03-19T09:10:38.678Z,225.00
2019-03-19T09:11:38.671Z,202.50
2019-03-19T09:12:38.599Z,225.00
2019-03-19T09:13:38.664Z,247.50
2019-03-19T09:14:38.662Z,247.50
2019-03-19T09:15:38.542Z,270.00
2019-03-19T09:16:38.559Z,247.50
2019-03-19T09:17:38.657Z,225.00
2019-03-19T09:18:38.610Z,270.00
2019-03-19T09:19:38.668Z,270.00
2019-03-19T09:20:38.606Z,247.50
2019-03-19T09:21:38.612Z,270.00
2019-03-19T09:22:38.663Z,270.00
2019-03-19T09:23:38.626Z,270.00
2019-03-19T09:24:38.672Z,270.00
2019-03-19T09:25:38.711Z,247.50
2019-03-19T09:26:38.602Z,247.50
2019-03-19T09:27:38.670Z,270.00
2019-03-19T09:28:38.670Z,292.50
2019-03-19T09:29:38.678Z,225.00
2019-03-19T09:30:38.607Z,270.00
2019-03-19T09:31:38.691Z,270.00
2019-03-19T09:32:38.600Z,270.00
2019-03-19T09:33:38.676Z,270.00
2019-03-19T09:34:38.538Z,270.00
2019-03-19T09:35:38.645Z,270.00
2019-03-19T09:36:38.614Z,292.50
2019-03-19T09:37:44.549Z,292.50
2019-03-19T09:38:38.588Z,270.00
2019-03-19T09:39:38.669Z,270.00
2019-03-19T09:40:38.657Z,270.00
2019-03-19T09:41:38.589Z,270.00
2019-03-19T09:42:38.545Z,270.00
2019-03-19T09:43:38.544Z,270.00
2019-03-19T09:44:38.648Z,270.00
2019-03-19T09:45:38.637Z,247.50
2019-03-19T09:46:38.698Z,247.50
2019-03-19T09:47:38.712Z,225.00
2019-03-19T09:48:38.694Z,225.00
2019-03-19T09:49:38.623Z,225.00
2019-03-19T09:50:38.625Z,202.50
2019-03-19T09:51:38.708Z,270.00
2019-03-19T09:52:38.626Z,202.50
2019-03-19T09:53:38.627Z,180.00
2019-03-19T09:54:38.700Z,180.00
2019-03-19T09:55:38.659Z,180.00
2019-03-19T09:56:38.650Z,225.00
2019-03-19T09:57:38.632Z,202.50
2019-03-19T09:58:38.702Z,180.00
2019-03-19T09:59:38.637Z,270.00
2019-03-19T10:00:38.715Z,270.00
2019-03-19T10:01:38.709Z,247.50
2019-03-19T10:02:38.644Z,270.00
2019-03-19T10:03:38.698Z,292.50
2019-03-19T10:04:38.634Z,270.00
2019-03-19T10:05:38.707Z,270.00
2019-03-19T10:06:38.704Z,247.50
2019-03-19T10:07:38.599Z,270.00
2019-03-19T10:08:38.671Z,270.00
2019-03-19T10:09:38.642Z,292.50
2019-03-19T10:10:38.731Z,292.50
2019-03-19T10:11:38.782Z,292.50
2019-03-19T10:12:38.714Z,292.50
2019-03-19T10:13:38.604Z,292.50
2019-03-19T10:14:38.773Z,270.00
2019-03-19T10:15:38.722Z,270.00
2019-03-19T10:16:38.639Z,270.00
2019-03-19T10:17:38.711Z,270.00
2019-03-19T10:18:38.658Z,292.50
2019-03-19T10:19:38.715Z,247.50
2019-03-19T10:20:38.654Z,225.00
2019-03-19T10:21:38.725Z,247.50
2019-03-19T10:22:38.723Z,270.00
2019-03-19T10:23:38.661Z,225.00
2019-03-19T10:24:38.709Z,180.00
2019-03-19T10:25:38.658Z,202.50
2019-03-19T10:26:38.600Z,270.00
2019-03-19T10:27:38.647Z,247.50
2019-03-19T10:28:38.625Z,270.00
2019-03-19T10:29:38.875Z,270.00
2019-03-19T10:30:38.719Z,270.00
2019-03-19T10:31:38.666Z,270.00
2019-03-19T10:32:38.687Z,247.50
2019-03-19T10:33:38.728Z,270.00
2019-03-19T10:34:38.740Z,247.50
2019-03-19T10:35:38.741Z,225.00
2019-03-19T10:36:38.658Z,180.00
2019-03-19T10:37:38.666Z,225.00
2019-03-19T10:38:38.731Z,202.50
2019-03-19T10:39:38.663Z,225.00
2019-03-19T10:40:38.739Z,270.00
2019-03-19T10:41:38.661Z,202.50
2019-03-19T10:42:38.667Z,270.00
2019-03-19T10:43:38.662Z,225.00
2019-03-19T10:44:38.737Z,270.00
2019-03-19T10:45:38.686Z,270.00
2019-03-19T10:46:38.668Z,270.00
2019-03-19T10:47:38.669Z,247.50
2019-03-19T10:48:38.738Z,247.50
2019-03-19T10:49:38.697Z,270.00
2019-03-19T10:50:38.737Z,270.00
2019-03-19T10:51:38.678Z,270.00
2019-03-19T10:52:38.737Z,270.00
2019-03-19T10:53:38.669Z,270.00
2019-03-19T10:54:38.649Z,270.00
2019-03-19T10:55:38.736Z,247.50
2019-03-19T10:56:39.157Z,270.00
2019-03-19T10:57:38.657Z,292.50
2019-03-19T10:58:38.734Z,270.00
2019-03-19T10:59:48.596Z,292.50
2019-03-19T11:00:38.735Z,292.50
2019-03-19T11:01:38.743Z,292.50
2019-03-19T11:02:38.665Z,270.00
2019-03-19T11:03:38.693Z,270.00
2019-03-19T11:04:38.679Z,270.00
2019-03-19T11:05:38.694Z,247.50
2019-03-19T11:06:38.759Z,270.00
2019-03-19T11:07:38.695Z,202.50
2019-03-19T11:08:38.686Z,247.50
2019-03-19T11:09:38.681Z,247.50
2019-03-19T11:10:38.751Z,270.00
2019-03-19T11:11:38.752Z,270.00
2019-03-19T11:12:38.698Z,270.00
2019-03-19T11:13:38.752Z,247.50
2019-03-19T11:14:38.671Z,270.00
2019-03-19T11:15:38.749Z,270.00
2019-03-19T11:16:38.751Z,247.50
2019-03-19T11:17:38.641Z,270.00
2019-03-19T11:18:38.636Z,270.00
2019-03-19T11:19:38.673Z,270.00
2019-03-19T11:20:38.746Z,247.50
2019-03-19T11:21:38.667Z,270.00
2019-03-19T11:22:38.681Z,270.00
2019-03-19T11:23:38.684Z,270.00
2019-03-19T11:24:38.696Z,292.50
2019-03-19T11:25:38.768Z,270.00
2019-03-19T11:26:38.761Z,270.00
2019-03-19T11:27:38.779Z,247.50
2019-03-19T11:28:38.810Z,270.00
2019-03-19T11:29:38.744Z,292.50
2019-03-19T11:30:38.765Z,270.00
2019-03-19T11:31:38.765Z,270.00
2019-03-19T11:32:38.768Z,270.00
2019-03-19T11:33:38.707Z,292.50
2019-03-19T11:34:38.649Z,292.50
2019-03-19T11:35:38.701Z,270.00
2019-03-19T11:36:38.705Z,292.50
2019-03-19T11:37:38.665Z,270.00
2019-03-19T11:38:38.727Z,247.50
2019-03-19T11:39:38.716Z,247.50
2019-03-19T11:40:38.758Z,225.00
2019-03-19T11:41:38.698Z,270.00
2019-03-19T11:42:38.644Z,247.50
2019-03-19T11:43:38.752Z,270.00
2019-03-19T11:44:38.777Z,270.00
2019-03-19T11:45:38.783Z,270.00
2019-03-19T11:46:38.709Z,270.00
2019-03-19T11:47:38.777Z,292.50
2019-03-19T11:48:38.721Z,270.00
2019-03-19T11:49:38.778Z,270.00
2019-03-19T11:50:38.788Z,270.00
2019-03-19T11:51:38.786Z,247.50
2019-03-19T11:52:40.203Z,270.00
2019-03-19T11:53:38.708Z,270.00
2019-03-19T11:54:38.717Z,270.00
2019-03-19T11:55:38.731Z,292.50
2019-03-19T11:56:38.719Z,270.00
2019-03-19T11:57:38.789Z,247.50
2019-03-19T11:58:38.718Z,247.50
2019-03-19T11:59:38.723Z,270.00
2019-03-19T12:00:38.728Z,202.50
2019-03-19T12:01:38.811Z,270.00
2019-03-19T12:02:38.676Z,247.50
2019-03-19T12:03:38.791Z,270.00
2019-03-19T12:04:38.789Z,270.00
2019-03-19T12:05:38.788Z,270.00
2019-03-19T12:06:38.733Z,247.50
2019-03-19T12:07:38.796Z,270.00
2019-03-19T12:08:38.794Z,247.50
2019-03-19T12:09:40.123Z,225.00
2019-03-19T12:10:38.801Z,225.00
2019-03-19T12:11:38.797Z,292.50
2019-03-19T12:12:38.737Z,292.50
2019-03-19T12:13:38.794Z,180.00
2019-03-19T12:14:38.800Z,270.00
2019-03-19T12:15:38.728Z,270.00
2019-03-19T12:16:38.796Z,292.50
2019-03-19T12:17:38.806Z,292.50
2019-03-19T12:18:38.802Z,270.00
2019-03-19T12:19:38.732Z,270.00
2019-03-19T12:20:38.730Z,270.00
2019-03-19T12:21:38.802Z,202.50
2019-03-19T12:22:38.733Z,247.50
2019-03-19T12:23:38.809Z,247.50
2019-03-19T12:24:38.698Z,247.50
2019-03-19T12:25:38.672Z,247.50
2019-03-19T12:26:38.785Z,225.00
2019-03-19T12:27:38.746Z,292.50
2019-03-19T12:28:39.795Z,270.00
2019-03-19T12:29:38.750Z,270.00
2019-03-19T12:30:38.786Z,292.50
2019-03-19T12:31:38.787Z,270.00
2019-03-19T12:32:38.700Z,270.00
2019-03-19T12:33:41.271Z,270.00
2019-03-19T12:34:38.818Z,270.00
2019-03-19T12:35:38.810Z,270.00
2019-03-19T12:36:38.847Z,292.50
2019-03-19T12:37:38.809Z,270.00